Ride Results

Murrumba Magic (08-08-2010)
Ride distance: 100.0 km

Outcomes - Murrumba Magic (08-08-2010)
Division No. of Entries Retired / DNE Completed Withdrawn Ineligible V/O Percentage Completed
HW 6 - 5 - - 1 83.33%
MW 21 - 16 1 - 4 76.19%
LW 22 - 18 - - 4 81.82%
JN 11 - 8 1 - 2 72.73%
Totals 60 - 47 2 - 11 78.33%
Results - Murrumba Magic (08-08-2010)
No. Rider Horse Place Time Leg Speeds Total
Km/Hr
H/R bpm
Heavyweight
105 Gavin Bartlett Cingala Royalle 1 (BC) 7:02:00 16.5, 14.1, 11.6 14.22 32, 45, 52, 48 (Avg:48)
95 Peter McDonald Wollumbin Farah 2 7:56:00 13.4, 12.4, 11.5 12.61 43, 48, 46, 45 (Avg:46)
98 Matthew Gadsby Centreline Envy 3 7:57:00 12.5, 12.6, 12.5 12.58 39, 48, 52, 56 (Avg:52)
67 Kellie Hart Noname 4 9:39:00 10.4, 9.5, 11.6 10.36 34, 41, 47, 46 (Avg:44)
69 Jackie Swan Beau 4 9:39:00 10.4, 9.5, 11.6 10.36 32, 39, 45, 50 (Avg:44)
96 Paul Lengronne Windz of Change Lame L3 0:00:00 12.5, 12.6, 12.6 - 33, 40, 43, 43 (Avg:42)
Middleweight
83 Caroline Fitzgerald Lanamere Roulette 1 5:57:00 15.5, 17.7, 17.7 16.81 31, 45, 46, 49 (Avg:46)
80 Sasha Laws-King Bint Shah Dara 1 (BC) 5:57:00 16.5, 16.4, 17.7 16.81 32, 44, 46, 46 (Avg:45)
100 John Dugan Erin Park GBH 3 6:13:00 16.5, 16.8, 14.4 16.09 33, 41, 46, 48 (Avg:45)
64 Matt Sample Tarrangower Crecendo 4 6:22:00 14.7, 16.1, 16.9 15.71 33, 46, 43, 44 (Avg:44)
73 Bridget Macintyre Poede Ashanti 5 7:28:00 15.5, 13.3, 10.9 13.39 40, 54, 48, 48 (Avg:50)
92 Fahad suliaiman Al Azri Touchwarr Kiara 6 7:42:00 12.4, 14.6, 11.7 12.99 31, 46, 49, 56 (Avg:50)
60 Johann Willemse The Wrangler 7 7:49:00 13.1, 12.7, 12.4 12.79 46, 47, 53, 55 (Avg:51)
74 Pierre DeWit Emily Jones TE 8 8:13:00 12.4, 11.8, 12.2 12.17 34, 43, 46, 45 (Avg:44)
97 Camille Champagne-Bargenquast Inshallah Maximus 9 8:23:00 11.3, 12.4, 12.3 11.93 45, 44, 50, 44 (Avg:46)
88 Liz Terry Ausden Illusion 9 8:23:00 11.3, 12.4, 12.3 11.93 33, 45, 49, 53 (Avg:49)
75 Bridget Nottle Justine te 11 8:24:00 12.4, 11.8, 11.1 11.90 30, 40, 42, 41 (Avg:41)
61 Jackie Gilks Reid River Reflectshine 12 8:42:00 12.4, 11.0, 10.7 11.49 34, 41, 46, 43 (Avg:43)
52 Jeni Martin Rowallan Mitchell 13 8:44:00 12.9, 11.5, 9.4 11.45 35, 40, 49, 49 (Avg:46)
103 Kristy Brundell Woomera Thor 14 9:32:00 11.0, 10.1, 10.1 10.49 34, 39, 42, 44 (Avg:41)
99 Darryl Field Gundiwidgee Shadowfax 14 9:32:00 11.0, 10.1, 10.1 10.49 35, 40, 50, 57 (Avg:49)
55 Stephen Gray Shannons Psyche 16 9:42:00 11.7, 9.2, 9.9 10.31 42, 55, 59, 58 (Avg:57)
82 Luke Annetts Tallawarra Jazardis Lame L2 0:00:00 15.5, 17.7 - 41, 45, 50 (Avg:47)
101 Natashja Burton Splendacrest Zafire Lame L2 0:00:00 11.0, 8.5 - 24, 39, 39 (Avg:39)
63 Ruth Dixon El Romero Lame L2 0:00:00 10.4, 9.0 - 31, 43, 56 (Avg:49)
77 Chelsea Moore Mt Eerwah Silver Selene Lame L2 0:00:00 10.4, 9.5 - 37, 37, 46 (Avg:41)
58 Akhmed Pshunov Captain Creek Tall Boy Withdrawn P/R 0:00:00 - - 38
Lightweight
81 Jennifer Annetts Churinga Goldfire 1 (BC) 5:45:00 15.5, 17.7, 20.8 17.39 36, 44, 48, 49 (Avg:47)
66 Kym Dyball Anniversary Wish 1 5:45:00 16.6, 16.8, 19.7 17.39 46, 45, 46, 49 (Avg:46)
71 Amaya Thomas Winderella Lodge Sphinx 3 5:53:00 15.4, 18.3, 18.0 17.00 39, 47, 47, 47 (Avg:47)
65 Jess Langridge Brookleigh Callista 4 6:22:00 14.7, 16.1, 16.9 15.71 36, 44, 42, 47 (Avg:44)
68 Karen Fields Jayhal Shah 5 7:00:00 13.8, 14.8, 14.1 14.29 31, 41, 43, 49 (Avg:44)
90 Shelley Chapman Bellarine Passion 6 7:42:00 12.4, 14.4, 11.9 12.99 26, 37, 42, 40 (Avg:39)
89 Teresa Vermeer Bellarine Gracie 6 7:42:00 12.4, 14.4, 11.9 12.99 31, 40, 42, 44 (Avg:42)
86 Sally Genninges Maximal Phoenix Sterling 8 7:48:00 13.1, 12.7, 12.5 12.82 38, 54, 47, 46 (Avg:49)
107 Ute Jordan Samson 9 8:09:00 13.2, 11.8, 11.4 12.27 33, 43, 44, 46 (Avg:44)
87 Janelle Taylor Glenewan Scout 9 8:09:00 13.2, 11.8, 11.5 12.27 30, 41, 43, 44 (Avg:42)
76 Jessica Aistrope Sarah Jones te 11 8:24:00 12.4, 11.8, 11.1 11.90 30, 48, 51, 52 (Avg:50)
84 Karen Hill Midu Magella 12 8:37:00 11.5, 11.7, 11.5 11.61 36, 38, 37, 39 (Avg:38)
62 Leigh Rich Leondon Maritz 13 8:41:00 12.4, 11.0, 10.8 11.52 27, 36, 35, 36 (Avg:35)
54 Leah Begley Royal Dominier 14 8:44:00 12.9, 11.5, 9.4 11.45 37, 42, 54, 50 (Avg:48)
93 Yvonne Hain Kie-Al Sirhan 15 9:13:00 12.3, 10.7, 9.1 10.85 30, 42, 43, 40 (Avg:41)
57 Robin Young Melawondi 16 9:19:00 12.4, 11.4, 8.0 10.73 29, 35, 39, 45 (Avg:39)
79 Sean Crew Mt Eerwah Silver Arafina 17 9:38:00 10.4, 9.5, 11.6 10.38 27, 33, 36, 36 (Avg:35)
78 Carla Jones Mt Eerwah Bay Cavalier 17 9:38:00 10.4, 9.5, 11.6 10.38 30, 39, 43, 44 (Avg:42)
56 Daniele Von Elsner Omah Lame L3 0:00:00 13.3, 11.7, 7.6 - 34, 37, 40, 39 (Avg:38)
109 Hannah English Carousels Cantata Heart Rate L2 0:00:00 11.9, 11.4 - 40, 45, 62 (Avg:53)
106 Corinne Kempter Topaz Lame L1 0:00:00 13.2 - 35, 41 (Avg:41)
59 Mary Sims Bonnie Rose Lame L1 0:00:00 11.3 - 33, 45 (Avg:45)
Junior
72 Jade Vergis Carnarvon Cavalier 1 (BC) 5:47:00 16.4, 17.0, 19.4 17.29 26, 38, 39, 42 (Avg:39)
104 Steph Tulk Bashan Memphis 2 7:42:00 14.2, 13.6, 10.6 12.99 32, 41, 46, 44 (Avg:43)
85 Cindy Williams Luack Kayla 3 8:37:00 11.5, 11.7, 11.5 11.61 35, 44, 50, 46 (Avg:46)
110 Tia Cunnington Wattles Marcelle 4 8:54:00 11.9, 11.4, 9.8 11.24 38, 44, 46, 54 (Avg:48)
94 Jessyca Dakin Ffire Storm 5 9:00:00 10.4, 12.4, 10.4 11.11 38, 48, 48, 49 (Avg:48)
70 Lainie Zischke Glenewan Sprite 5 9:00:00 11.1, 11.6, 10.4 11.11 33, 37, 43, 41 (Avg:40)
102 Dainah McMinn Ausden Prince Mahal 7 9:32:00 11.0, 10.1, 10.1 10.49 31, 36, 39, 40 (Avg:38)
53 David Anderson Jnr Hazeldean Estina 8 9:38:00 10.4, 9.5, 11.7 10.38 42, 46, 50, 57 (Avg:51)
91 Hannah Terry Lindall Zuzanna Lame L3 0:00:00 11.3, 12.4, 12.2 - 31, 50, 47, 47 (Avg:48)
51 Jamie Green Abbeywood Romeo Withdrawn L2 0:00:00 - - 33, 49, 52 (Avg:50)
108 Kevin Kempter Anijoa Delilah Lame L2 0:00:00 13.2, 11.8 - 33, 38, 44 (Avg:41)